LNI113 OEMA-WIII
Flight info
| Callsign | LNI113 |
|---|---|
| Flight time | N/A |
| Altitude | 41000 |
| Route | MEDRO1K MEDRO M872 BDB Y214 RAPMA DEGNO GOBRO L425 ASPUX UL425 TVM N640 KAT M766 PAGAI G461 BIDAK BIDAK1A |
| Aircraft | A333/H-SDE3GHIJ2J3J5M1RVWXY/LB2D1 |
Departure
| Time | 2026-04-27 20:53 |
|---|---|
| Airport | Prince Mohammad Bin Abdulaziz Airport (OEMA) |
Arrival
| Time | N/A |
|---|---|
| Airport | Soekarno-Hatta International Airport (WIII) |
| Time | Latitude | Longitude | Altitude | Speed | Heading |
|---|---|---|---|---|---|
| 2026-04-27 19:21 | 24.55473 | 39.71263 | 2169 ft | 0 kts | 78° |
| 2026-04-27 20:43 | 24.55471 | 39.71250 | 2168 ft | 3 kts | 78° |
| 2026-04-27 20:43 | 24.55467 | 39.71229 | 2168 ft | 3 kts | 78° |
| 2026-04-27 20:43 | 24.55463 | 39.71212 | 2168 ft | 2 kts | 80° |
| 2026-04-27 20:44 | 24.55463 | 39.71193 | 2168 ft | 3 kts | 118° |
| 2026-04-27 20:44 | 24.55469 | 39.71184 | 2168 ft | 3 kts | 154° |
| 2026-04-27 20:44 | 24.55488 | 39.71177 | 2168 ft | 3 kts | 171° |
| 2026-04-27 20:44 | 24.55497 | 39.71176 | 2168 ft | 0 kts | 169° |
| 2026-04-27 20:47 | 24.55482 | 39.71179 | 2168 ft | 4 kts | 169° |
| 2026-04-27 20:47 | 24.55436 | 39.71189 | 2168 ft | 9 kts | 169° |
| 2026-04-27 20:48 | 24.55358 | 39.71206 | 2168 ft | 14 kts | 169° |
| 2026-04-27 20:48 | 24.55245 | 39.71230 | 2168 ft | 19 kts | 169° |
| 2026-04-27 20:48 | 24.55104 | 39.71258 | 2168 ft | 20 kts | 170° |
| 2026-04-27 20:48 | 24.54975 | 39.71282 | 2168 ft | 17 kts | 171° |
| 2026-04-27 20:49 | 24.54866 | 39.71240 | 2168 ft | 20 kts | 228° |
| 2026-04-27 20:49 | 24.54769 | 39.71119 | 2168 ft | 22 kts | 229° |
| 2026-04-27 20:49 | 24.54661 | 39.71001 | 2168 ft | 19 kts | 205° |
| 2026-04-27 20:49 | 24.54520 | 39.70998 | 2168 ft | 22 kts | 170° |
| 2026-04-27 20:50 | 24.54364 | 39.71031 | 2168 ft | 24 kts | 169° |
| 2026-04-27 20:50 | 24.54191 | 39.71065 | 2168 ft | 26 kts | 171° |
| 2026-04-27 20:50 | 24.54006 | 39.71095 | 2168 ft | 28 kts | 173° |
| 2026-04-27 20:50 | 24.53858 | 39.71110 | 2168 ft | 17 kts | 150° |
| 2026-04-27 20:51 | 24.53866 | 39.71157 | 2168 ft | 7 kts | 333° |
| 2026-04-27 20:51 | 24.53916 | 39.71130 | 2168 ft | 8 kts | 342° |
| 2026-04-27 20:51 | 24.54094 | 39.71088 | 2168 ft | 47 kts | 349° |
| 2026-04-27 20:51 | 24.54536 | 39.70978 | 2168 ft | 84 kts | 345° |
| 2026-04-27 20:52 | 24.55228 | 39.70835 | 2168 ft | 118 kts | 351° |
| 2026-04-27 20:52 | 24.56156 | 39.70648 | 2168 ft | 152 kts | 348° |
| 2026-04-27 20:52 | 24.57299 | 39.70408 | 2176 ft | 181 kts | 347° |
| 2026-04-27 20:52 | 24.58506 | 39.70157 | 2504 ft | 180 kts | 347° |
| 2026-04-27 20:53 | 24.59794 | 39.69880 | 2612 ft | 197 kts | 347° |
| 2026-04-27 20:53 | 24.61208 | 39.69577 | 2717 ft | 216 kts | 347° |
| 2026-04-27 20:53 | 24.62755 | 39.69247 | 2808 ft | 237 kts | 347° |
| 2026-04-27 20:53 | 24.64469 | 39.68881 | 2861 ft | 262 kts | 348° |
| 2026-04-27 20:54 | 24.68149 | 39.68098 | 3827 ft | 273 kts | 347° |
| 2026-04-27 20:54 | 24.70025 | 39.67702 | 4393 ft | 274 kts | 347° |
| 2026-04-27 20:54 | 24.71882 | 39.67312 | 5069 ft | 271 kts | 346° |
| 2026-04-27 20:55 | 24.73728 | 39.66921 | 5685 ft | 270 kts | 345° |
| 2026-04-27 20:55 | 24.75565 | 39.66528 | 6155 ft | 274 kts | 345° |
| 2026-04-27 20:55 | 24.77446 | 39.66125 | 6683 ft | 276 kts | 345° |
| 2026-04-27 20:55 | 24.79349 | 39.65718 | 7147 ft | 280 kts | 344° |
| 2026-04-27 20:56 | 24.81271 | 39.65322 | 7643 ft | 284 kts | 349° |
| 2026-04-27 20:56 | 24.83276 | 39.65516 | 8081 ft | 297 kts | 14° |
| 2026-04-27 20:56 | 24.85093 | 39.66646 | 8521 ft | 308 kts | 39° |
| 2026-04-27 20:56 | 24.86385 | 39.68512 | 8930 ft | 315 kts | 64° |
| 2026-04-27 20:57 | 24.86979 | 39.70847 | 9388 ft | 317 kts | 81° |
| 2026-04-27 20:57 | 24.87340 | 39.73243 | 9858 ft | 320 kts | 81° |
| 2026-04-27 20:57 | 24.87732 | 39.75673 | 10260 ft | 326 kts | 81° |
| 2026-04-27 20:57 | 24.88162 | 39.78192 | 10346 ft | 344 kts | 80° |
| 2026-04-27 20:58 | 24.88616 | 39.80750 | 10425 ft | 361 kts | 80° |
| 2026-04-27 20:58 | 24.89132 | 39.83598 | 10514 ft | 378 kts | 79° |
| 2026-04-27 20:58 | 24.89605 | 39.86459 | 10667 ft | 391 kts | 84° |
| 2026-04-27 20:58 | 24.89740 | 39.89442 | 11273 ft | 389 kts | 92° |
| 2026-04-27 20:59 | 24.89705 | 39.92435 | 11777 ft | 393 kts | 94° |
| 2026-04-27 20:59 | 24.89655 | 39.95448 | 12333 ft | 395 kts | 94° |
| 2026-04-27 20:59 | 24.89596 | 39.98479 | 12857 ft | 398 kts | 94° |
| 2026-04-27 20:59 | 24.89531 | 40.01541 | 13379 ft | 401 kts | 94° |
| 2026-04-27 21:00 | 24.89466 | 40.04620 | 13936 ft | 403 kts | 94° |
| 2026-04-27 21:00 | 24.89365 | 40.07712 | 14406 ft | 405 kts | 99° |
| 2026-04-27 21:00 | 24.88702 | 40.10658 | 14930 ft | 399 kts | 116° |
| 2026-04-27 21:00 | 24.87301 | 40.13271 | 15358 ft | 395 kts | 134° |
| 2026-04-27 21:01 | 24.85452 | 40.15496 | 15889 ft | 394 kts | 137° |
| 2026-04-27 21:01 | 24.83577 | 40.17744 | 16351 ft | 398 kts | 137° |
| 2026-04-27 21:01 | 24.81687 | 40.19982 | 16844 ft | 400 kts | 137° |
| 2026-04-27 21:01 | 24.79775 | 40.22221 | 17330 ft | 402 kts | 138° |
| 2026-04-27 21:02 | 24.77873 | 40.24433 | 17788 ft | 405 kts | 138° |
| 2026-04-27 21:02 | 24.75917 | 40.26694 | 18247 ft | 408 kts | 138° |
| 2026-04-27 21:02 | 24.73945 | 40.28965 | 18670 ft | 412 kts | 139° |
| 2026-04-27 21:02 | 24.71957 | 40.31249 | 19108 ft | 414 kts | 139° |
| 2026-04-27 21:03 | 24.69960 | 40.33559 | 19521 ft | 418 kts | 139° |
| 2026-04-27 21:03 | 24.67951 | 40.35886 | 19944 ft | 421 kts | 139° |
| 2026-04-27 21:03 | 24.65948 | 40.38203 | 20324 ft | 424 kts | 139° |
| 2026-04-27 21:03 | 24.63882 | 40.40590 | 20747 ft | 427 kts | 139° |
| 2026-04-27 21:04 | 24.61856 | 40.42929 | 21098 ft | 431 kts | 139° |
| 2026-04-27 21:04 | 24.59782 | 40.45321 | 21507 ft | 433 kts | 139° |
| 2026-04-27 21:04 | 24.57692 | 40.47730 | 21884 ft | 436 kts | 140° |
| 2026-04-27 21:04 | 24.55592 | 40.50148 | 22225 ft | 439 kts | 140° |
| 2026-04-27 21:05 | 24.53475 | 40.52586 | 22585 ft | 442 kts | 140° |
| 2026-04-27 21:05 | 24.51347 | 40.55035 | 22934 ft | 445 kts | 140° |
| 2026-04-27 21:05 | 24.49210 | 40.57512 | 23272 ft | 449 kts | 137° |
| 2026-04-27 21:05 | 24.47370 | 40.60345 | 23546 ft | 463 kts | 124° |
| 2026-04-27 21:06 | 24.46129 | 40.63649 | 23867 ft | 475 kts | 110° |
| 2026-04-27 21:06 | 24.45554 | 40.67267 | 24139 ft | 485 kts | 101° |
| 2026-04-27 21:06 | 24.45145 | 40.70892 | 24433 ft | 488 kts | 101° |
| 2026-04-27 21:06 | 24.44727 | 40.74611 | 24727 ft | 491 kts | 101° |
| 2026-04-27 21:07 | 24.44311 | 40.78347 | 24970 ft | 495 kts | 101° |
| 2026-04-27 21:07 | 24.43898 | 40.82107 | 25277 ft | 497 kts | 101° |
| 2026-04-27 21:07 | 24.43485 | 40.85892 | 25522 ft | 501 kts | 101° |
| 2026-04-27 21:07 | 24.43072 | 40.89701 | 25788 ft | 503 kts | 101° |
| 2026-04-27 21:08 | 24.42661 | 40.93533 | 26053 ft | 507 kts | 101° |
| 2026-04-27 21:08 | 24.42253 | 40.97343 | 26285 ft | 510 kts | 101° |
| 2026-04-27 21:08 | 24.41842 | 41.01213 | 26564 ft | 512 kts | 101° |
| 2026-04-27 21:08 | 24.41428 | 41.05115 | 26797 ft | 515 kts | 101° |
| 2026-04-27 21:09 | 24.41007 | 41.09038 | 27075 ft | 517 kts | 101° |
| 2026-04-27 21:09 | 24.40583 | 41.12972 | 27282 ft | 521 kts | 101° |
| 2026-04-27 21:09 | 24.40164 | 41.16876 | 27533 ft | 523 kts | 101° |
| 2026-04-27 21:09 | 24.39738 | 41.20854 | 27777 ft | 525 kts | 101° |
| 2026-04-27 21:10 | 24.39312 | 41.24845 | 27980 ft | 528 kts | 101° |
| 2026-04-27 21:10 | 24.38883 | 41.28868 | 28238 ft | 530 kts | 101° |
| 2026-04-27 21:10 | 24.38460 | 41.32849 | 28446 ft | 532 kts | 101° |
| 2026-04-27 21:10 | 24.38028 | 41.36905 | 28680 ft | 534 kts | 101° |
| 2026-04-27 21:11 | 24.37596 | 41.40973 | 28877 ft | 537 kts | 101° |
| 2026-04-27 21:11 | 24.37161 | 41.45050 | 29089 ft | 539 kts | 101° |
| 2026-04-27 21:11 | 24.36726 | 41.49146 | 29311 ft | 541 kts | 101° |
| 2026-04-27 21:11 | 24.36295 | 41.53199 | 29570 ft | 542 kts | 101° |
| 2026-04-27 21:12 | 24.35855 | 41.57320 | 29700 ft | 546 kts | 101° |
| 2026-04-27 21:12 | 24.35412 | 41.61462 | 29935 ft | 547 kts | 101° |
| 2026-04-27 21:12 | 24.34968 | 41.65617 | 30150 ft | 549 kts | 101° |
| 2026-04-27 21:12 | 24.34520 | 41.69788 | 30308 ft | 551 kts | 101° |
| 2026-04-27 21:13 | 24.34070 | 41.73969 | 30540 ft | 552 kts | 101° |
| 2026-04-27 21:13 | 24.33623 | 41.78117 | 30713 ft | 554 kts | 101° |
| 2026-04-27 21:13 | 24.33153 | 41.82315 | 30876 ft | 555 kts | 104° |
| 2026-04-27 21:13 | 24.32211 | 41.86389 | 31113 ft | 549 kts | 111° |
| 2026-04-27 21:14 | 24.31145 | 41.90436 | 31240 ft | 553 kts | 111° |
| 2026-04-27 21:14 | 24.30074 | 41.94491 | 31391 ft | 554 kts | 111° |
| 2026-04-27 21:14 | 24.29000 | 41.98556 | 31630 ft | 556 kts | 110° |
| 2026-04-27 21:14 | 24.27922 | 42.02634 | 31849 ft | 555 kts | 110° |
| 2026-04-27 21:15 | 24.26861 | 42.06644 | 32011 ft | 557 kts | 110° |
| 2026-04-27 21:15 | 24.25778 | 42.10733 | 32191 ft | 558 kts | 110° |
| 2026-04-27 21:15 | 24.24694 | 42.14825 | 32387 ft | 558 kts | 110° |
| 2026-04-27 21:15 | 24.23609 | 42.18919 | 32497 ft | 560 kts | 110° |
| 2026-04-27 21:16 | 24.22519 | 42.23027 | 32677 ft | 561 kts | 110° |
| 2026-04-27 21:16 | 24.21429 | 42.27133 | 32891 ft | 560 kts | 110° |
| 2026-04-27 21:16 | 24.20341 | 42.31227 | 33078 ft | 561 kts | 110° |
| 2026-04-27 21:16 | 24.19263 | 42.35279 | 33276 ft | 561 kts | 110° |
| 2026-04-27 21:17 | 24.18170 | 42.39381 | 33565 ft | 554 kts | 110° |
| 2026-04-27 21:17 | 24.17125 | 42.43322 | 34840 ft | 531 kts | 110° |
| 2026-04-27 21:17 | 24.16090 | 42.47198 | 35037 ft | 532 kts | 110° |
| 2026-04-27 21:18 | 24.14003 | 42.55004 | 35191 ft | 536 kts | 110° |
| 2026-04-27 21:18 | 24.11894 | 42.62875 | 35344 ft | 540 kts | 110° |
| 2026-04-27 21:19 | 24.09779 | 42.70753 | 35499 ft | 544 kts | 110° |
| 2026-04-27 21:19 | 24.07632 | 42.78729 | 35702 ft | 547 kts | 110° |
| 2026-04-27 21:20 | 24.05467 | 42.86761 | 35855 ft | 550 kts | 110° |
| 2026-04-27 21:20 | 24.04373 | 42.90778 | 35946 ft | 552 kts | 110° |
| 2026-04-27 21:20 | 24.03269 | 42.94800 | 36150 ft | 551 kts | 110° |
| 2026-04-27 21:20 | 24.02182 | 42.98758 | 36352 ft | 550 kts | 110° |
| 2026-04-27 21:21 | 24.01085 | 43.02766 | 36526 ft | 550 kts | 110° |
| 2026-04-27 21:21 | 23.99987 | 43.06775 | 36695 ft | 549 kts | 110° |
| 2026-04-27 21:21 | 23.98892 | 43.10773 | 36897 ft | 547 kts | 110° |
| 2026-04-27 21:21 | 23.97801 | 43.14763 | 37051 ft | 547 kts | 110° |
| 2026-04-27 21:22 | 23.96714 | 43.18746 | 37168 ft | 547 kts | 110° |
| 2026-04-27 21:22 | 23.95626 | 43.22735 | 37309 ft | 547 kts | 110° |
| 2026-04-27 21:22 | 23.94537 | 43.26730 | 37452 ft | 547 kts | 110° |
| 2026-04-27 21:22 | 23.93451 | 43.30711 | 37569 ft | 547 kts | 110° |
| 2026-04-27 21:23 | 23.92376 | 43.34654 | 37679 ft | 547 kts | 110° |
| 2026-04-27 21:23 | 23.91293 | 43.38625 | 37835 ft | 546 kts | 110° |
| 2026-04-27 21:23 | 23.89115 | 43.46592 | 38057 ft | 546 kts | 110° |
| 2026-04-27 21:24 | 23.88028 | 43.50570 | 38211 ft | 545 kts | 110° |
| 2026-04-27 21:24 | 23.86944 | 43.54532 | 38312 ft | 545 kts | 110° |
| 2026-04-27 21:24 | 23.84768 | 43.62469 | 38490 ft | 545 kts | 110° |
| 2026-04-27 21:25 | 23.83692 | 43.66389 | 38601 ft | 545 kts | 110° |
| 2026-04-27 21:25 | 23.82604 | 43.70351 | 38686 ft | 545 kts | 110° |
| 2026-04-27 21:25 | 23.80421 | 43.78287 | 38856 ft | 545 kts | 110° |
| 2026-04-27 21:26 | 23.78235 | 43.86218 | 39046 ft | 545 kts | 110° |
| 2026-04-27 21:26 | 23.76862 | 43.94369 | 39239 ft | 549 kts | 97° |
| 2026-04-27 21:27 | 23.76217 | 44.02667 | 39399 ft | 548 kts | 97° |
| 2026-04-27 21:27 | 23.75591 | 44.10917 | 39564 ft | 548 kts | 97° |
| 2026-04-27 21:28 | 23.75281 | 44.15073 | 39676 ft | 547 kts | 97° |
| 2026-04-27 21:28 | 23.74974 | 44.19208 | 39752 ft | 546 kts | 97° |
| 2026-04-27 21:28 | 23.74367 | 44.27436 | 39907 ft | 545 kts | 97° |
| 2026-04-27 21:29 | 23.73760 | 44.35701 | 40064 ft | 544 kts | 96° |
| 2026-04-27 21:29 | 23.73158 | 44.43938 | 40239 ft | 543 kts | 96° |
| 2026-04-27 21:30 | 23.72561 | 44.52096 | 40406 ft | 541 kts | 96° |
| 2026-04-27 21:30 | 23.71962 | 44.60269 | 40575 ft | 539 kts | 96° |
| 2026-04-27 21:31 | 23.71363 | 44.68408 | 40731 ft | 537 kts | 96° |
| 2026-04-27 21:31 | 23.70767 | 44.76465 | 40878 ft | 535 kts | 96° |
| 2026-04-27 21:32 | 23.70165 | 44.84554 | 40924 ft | 535 kts | 96° |
| 2026-04-27 21:32 | 23.69520 | 44.92658 | 40926 ft | 536 kts | 97° |
| 2026-04-27 21:33 | 23.68845 | 45.00718 | 40925 ft | 536 kts | 97° |
| 2026-04-27 21:33 | 23.68175 | 45.08807 | 40924 ft | 535 kts | 97° |
| 2026-04-27 21:34 | 23.67509 | 45.16882 | 40922 ft | 533 kts | 97° |
| 2026-04-27 21:34 | 23.66838 | 45.24943 | 40917 ft | 532 kts | 97° |
| 2026-04-27 21:35 | 23.66166 | 45.32952 | 40915 ft | 532 kts | 96° |
| 2026-04-27 21:35 | 23.65494 | 45.41000 | 40914 ft | 533 kts | 96° |
| 2026-04-27 21:36 | 23.64820 | 45.49065 | 40913 ft | 534 kts | 96° |
| 2026-04-27 21:36 | 23.64150 | 45.57082 | 40912 ft | 534 kts | 96° |
| 2026-04-27 21:37 | 23.63468 | 45.65163 | 40910 ft | 534 kts | 97° |
| 2026-04-27 21:37 | 23.62771 | 45.73229 | 40909 ft | 534 kts | 97° |
| 2026-04-27 21:38 | 23.62081 | 45.81242 | 40909 ft | 533 kts | 97° |
| 2026-04-27 21:38 | 23.61387 | 45.89295 | 40908 ft | 533 kts | 96° |
| 2026-04-27 21:39 | 23.60692 | 45.97356 | 40907 ft | 534 kts | 96° |
| 2026-04-27 21:39 | 23.59995 | 46.05418 | 40907 ft | 534 kts | 96° |
| 2026-04-27 21:40 | 23.59296 | 46.13489 | 40906 ft | 533 kts | 97° |
| 2026-04-27 21:40 | 23.58599 | 46.21477 | 40905 ft | 532 kts | 96° |
| 2026-04-27 21:41 | 23.57897 | 46.29507 | 40905 ft | 531 kts | 97° |
| 2026-04-27 21:41 | 23.57191 | 46.37526 | 40905 ft | 531 kts | 97° |
| 2026-04-27 21:42 | 23.56481 | 46.45545 | 40904 ft | 531 kts | 97° |
| 2026-04-27 21:42 | 23.55764 | 46.53552 | 40904 ft | 531 kts | 97° |
| 2026-04-27 21:43 | 23.55013 | 46.61547 | 40904 ft | 530 kts | 97° |
| 2026-04-27 21:43 | 23.54269 | 46.69485 | 40903 ft | 529 kts | 97° |
| 2026-04-27 21:44 | 23.53526 | 46.77465 | 40901 ft | 528 kts | 97° |
| 2026-04-27 21:44 | 23.52785 | 46.85445 | 40901 ft | 528 kts | 97° |
| 2026-04-27 21:45 | 23.52050 | 46.93352 | 40902 ft | 527 kts | 97° |
| 2026-04-27 21:45 | 23.51311 | 47.01306 | 40902 ft | 527 kts | 97° |
| 2026-04-27 21:46 | 23.50570 | 47.09253 | 40902 ft | 527 kts | 97° |
| 2026-04-27 21:46 | 23.49952 | 47.15857 | 40903 ft | 527 kts | 97° |
| 2026-04-27 21:47 | 23.49207 | 47.23800 | 40902 ft | 526 kts | 97° |
| 2026-04-27 21:47 | 23.48464 | 47.31691 | 40903 ft | 526 kts | 97° |
| 2026-04-27 21:48 | 23.47713 | 47.39614 | 40903 ft | 526 kts | 97° |
| 2026-04-27 21:48 | 23.46835 | 47.48836 | 40903 ft | 526 kts | 97° |
| 2026-04-27 21:49 | 23.46186 | 47.55433 | 40903 ft | 526 kts | 98° |
| 2026-04-27 21:49 | 23.45385 | 47.63357 | 40899 ft | 526 kts | 98° |
| 2026-04-27 21:50 | 23.44591 | 47.71285 | 40898 ft | 526 kts | 98° |
| 2026-04-27 21:50 | 23.43800 | 47.79218 | 40897 ft | 527 kts | 98° |
| 2026-04-27 21:51 | 23.43010 | 47.87158 | 40897 ft | 527 kts | 98° |
| 2026-04-27 21:51 | 23.42226 | 47.95042 | 40895 ft | 527 kts | 98° |
| 2026-04-27 21:52 | 23.41434 | 48.02996 | 40895 ft | 526 kts | 98° |
| 2026-04-27 21:52 | 23.40643 | 48.10914 | 40893 ft | 525 kts | 98° |
| 2026-04-27 21:53 | 23.39855 | 48.18780 | 40892 ft | 525 kts | 98° |
| 2026-04-27 21:53 | 23.39062 | 48.26673 | 40890 ft | 524 kts | 98° |
| 2026-04-27 21:54 | 23.37383 | 48.34337 | 40888 ft | 518 kts | 116° |
| 2026-04-27 21:54 | 23.33887 | 48.41125 | 40889 ft | 514 kts | 126° |
| 2026-04-27 21:55 | 23.30110 | 48.47675 | 40886 ft | 515 kts | 126° |
| 2026-04-27 21:55 | 23.26289 | 48.54270 | 40883 ft | 514 kts | 126° |
| 2026-04-27 21:56 | 23.20560 | 48.64117 | 40881 ft | 512 kts | 126° |
| 2026-04-27 21:57 | 23.16765 | 48.70619 | 40880 ft | 512 kts | 126° |
| 2026-04-27 21:57 | 23.12934 | 48.77165 | 40879 ft | 512 kts | 126° |
| 2026-04-27 21:58 | 23.09107 | 48.83695 | 40875 ft | 512 kts | 126° |
| 2026-04-27 21:58 | 23.05274 | 48.90220 | 40873 ft | 512 kts | 126° |
| 2026-04-27 21:59 | 23.01464 | 48.96697 | 40871 ft | 512 kts | 126° |
| 2026-04-27 21:59 | 22.97458 | 49.03060 | 40870 ft | 509 kts | 129° |
| 2026-04-27 22:00 | 22.93238 | 49.09251 | 40870 ft | 510 kts | 129° |
| 2026-04-27 22:00 | 22.89026 | 49.15449 | 40868 ft | 510 kts | 129° |
| 2026-04-27 22:01 | 22.84850 | 49.21598 | 40867 ft | 510 kts | 129° |
| 2026-04-27 22:01 | 22.80641 | 49.27797 | 40866 ft | 509 kts | 129° |
| 2026-04-27 22:02 | 22.76436 | 49.33984 | 40865 ft | 509 kts | 129° |
| 2026-04-27 22:02 | 22.72241 | 49.40154 | 40864 ft | 508 kts | 129° |
| 2026-04-27 22:03 | 22.68071 | 49.46279 | 40864 ft | 508 kts | 129° |
| 2026-04-27 22:03 | 22.63869 | 49.52444 | 40857 ft | 508 kts | 129° |
| 2026-04-27 22:04 | 22.59660 | 49.58612 | 40854 ft | 508 kts | 129° |
| 2026-04-27 22:04 | 22.55492 | 49.64714 | 40853 ft | 508 kts | 129° |
| 2026-04-27 22:05 | 22.51285 | 49.70861 | 40852 ft | 507 kts | 129° |
| 2026-04-27 22:05 | 22.47083 | 49.76997 | 40850 ft | 507 kts | 129° |
| 2026-04-27 22:06 | 22.42909 | 49.83083 | 40849 ft | 506 kts | 129° |
| 2026-04-27 22:06 | 22.38709 | 49.89200 | 40848 ft | 506 kts | 129° |
| 2026-04-27 22:07 | 22.34507 | 49.95314 | 40847 ft | 506 kts | 129° |
| 2026-04-27 22:07 | 22.30330 | 50.01382 | 40846 ft | 506 kts | 129° |
| 2026-04-27 22:08 | 22.26130 | 50.07478 | 40829 ft | 506 kts | 129° |
| 2026-04-27 22:08 | 22.21948 | 50.13539 | 40810 ft | 506 kts | 129° |
| 2026-04-27 22:09 | 22.17739 | 50.19634 | 40804 ft | 505 kts | 129° |
| 2026-04-27 22:09 | 22.13538 | 50.25709 | 40801 ft | 504 kts | 129° |
| 2026-04-27 22:10 | 22.09332 | 50.31785 | 40803 ft | 505 kts | 129° |
| 2026-04-27 22:10 | 22.05149 | 50.37821 | 40802 ft | 506 kts | 129° |
| 2026-04-27 22:11 | 22.00925 | 50.43909 | 40802 ft | 507 kts | 129° |
| 2026-04-27 22:11 | 21.96692 | 50.50001 | 40802 ft | 506 kts | 129° |
| 2026-04-27 22:12 | 21.92510 | 50.56016 | 40801 ft | 504 kts | 129° |
| 2026-04-27 22:12 | 21.88307 | 50.62053 | 40802 ft | 503 kts | 128° |
| 2026-04-27 22:13 | 21.84101 | 50.68087 | 40802 ft | 503 kts | 129° |
| 2026-04-27 22:13 | 21.79892 | 50.74119 | 40809 ft | 504 kts | 129° |
| 2026-04-27 22:14 | 21.75708 | 50.80108 | 40810 ft | 504 kts | 129° |
| 2026-04-27 22:14 | 21.71496 | 50.86132 | 40810 ft | 503 kts | 129° |
| 2026-04-27 22:15 | 21.67275 | 50.92160 | 40811 ft | 503 kts | 129° |
| 2026-04-27 22:15 | 21.63059 | 50.98176 | 40811 ft | 504 kts | 129° |
| 2026-04-27 22:16 | 21.58864 | 51.04155 | 40811 ft | 503 kts | 129° |
| 2026-04-27 22:16 | 21.54636 | 51.10173 | 40811 ft | 503 kts | 129° |
| 2026-04-27 22:17 | 21.50421 | 51.16169 | 40812 ft | 503 kts | 129° |
| 2026-04-27 22:17 | 21.46225 | 51.22127 | 40812 ft | 503 kts | 129° |
| 2026-04-27 22:18 | 21.41997 | 51.28128 | 40812 ft | 503 kts | 129° |
| 2026-04-27 22:18 | 21.37796 | 51.34083 | 40804 ft | 503 kts | 129° |
| 2026-04-27 22:19 | 21.33575 | 51.40059 | 40795 ft | 503 kts | 129° |
| 2026-04-27 22:19 | 21.29347 | 51.46039 | 40795 ft | 502 kts | 129° |
| 2026-04-27 22:20 | 21.25145 | 51.51976 | 40795 ft | 502 kts | 129° |
| 2026-04-27 22:20 | 21.20926 | 51.57931 | 40796 ft | 501 kts | 129° |
| 2026-04-27 22:21 | 21.16703 | 51.63883 | 40797 ft | 501 kts | 129° |
| 2026-04-27 22:21 | 21.12497 | 51.69807 | 40797 ft | 501 kts | 129° |
| 2026-04-27 22:22 | 21.08268 | 51.75756 | 40797 ft | 501 kts | 129° |
| 2026-04-27 22:22 | 21.04039 | 51.81699 | 40798 ft | 500 kts | 128° |
| 2026-04-27 22:23 | 20.99846 | 51.87587 | 40801 ft | 500 kts | 128° |
| 2026-04-27 22:23 | 20.95627 | 51.93502 | 40802 ft | 499 kts | 128° |
| 2026-04-27 22:24 | 20.91404 | 51.99418 | 40803 ft | 499 kts | 128° |
| 2026-04-27 22:24 | 20.87182 | 52.05326 | 40803 ft | 499 kts | 128° |
| 2026-04-27 22:25 | 20.82994 | 52.11181 | 40804 ft | 499 kts | 128° |
| 2026-04-27 22:25 | 20.78777 | 52.17070 | 40804 ft | 498 kts | 128° |
| 2026-04-27 22:26 | 20.74564 | 52.22947 | 40805 ft | 498 kts | 128° |
| 2026-04-27 22:26 | 20.70350 | 52.28821 | 40804 ft | 497 kts | 128° |
| 2026-04-27 22:27 | 20.66165 | 52.34647 | 40805 ft | 497 kts | 128° |
| 2026-04-27 22:27 | 20.61951 | 52.40507 | 40806 ft | 497 kts | 128° |
| 2026-04-27 22:28 | 20.57728 | 52.46374 | 40806 ft | 497 kts | 128° |
| 2026-04-27 22:28 | 20.53539 | 52.52189 | 40806 ft | 497 kts | 128° |
| 2026-04-27 22:29 | 20.49327 | 52.58028 | 40807 ft | 496 kts | 128° |
| 2026-04-27 22:29 | 20.45110 | 52.63870 | 40807 ft | 496 kts | 128° |
| 2026-04-27 22:30 | 20.40888 | 52.69712 | 40807 ft | 497 kts | 128° |
| 2026-04-27 22:30 | 20.36683 | 52.75525 | 40808 ft | 498 kts | 128° |
| 2026-04-27 22:31 | 20.32440 | 52.81383 | 40808 ft | 498 kts | 128° |
| 2026-04-27 22:31 | 20.28207 | 52.87223 | 40808 ft | 497 kts | 128° |
| 2026-04-27 22:32 | 20.24005 | 52.93014 | 40808 ft | 496 kts | 128° |
| 2026-04-27 22:32 | 20.19799 | 52.98805 | 40809 ft | 496 kts | 128° |
| 2026-04-27 22:33 | 20.15571 | 53.04619 | 40809 ft | 497 kts | 128° |
| 2026-04-27 22:33 | 20.11326 | 53.10452 | 40810 ft | 498 kts | 128° |
| 2026-04-27 22:34 | 20.07082 | 53.16278 | 40810 ft | 498 kts | 128° |
| 2026-04-27 22:34 | 20.02863 | 53.22064 | 40810 ft | 497 kts | 128° |
| 2026-04-27 22:35 | 19.98624 | 53.27871 | 40811 ft | 496 kts | 128° |
| 2026-04-27 22:35 | 19.94411 | 53.33633 | 40811 ft | 495 kts | 128° |
| 2026-04-27 22:36 | 19.90199 | 53.39395 | 40811 ft | 493 kts | 128° |
| 2026-04-27 22:36 | 19.85988 | 53.45147 | 40812 ft | 493 kts | 128° |
| 2026-04-27 22:37 | 19.81768 | 53.50906 | 40813 ft | 494 kts | 128° |
| 2026-04-27 22:37 | 19.77552 | 53.56654 | 40812 ft | 495 kts | 128° |
| 2026-04-27 22:38 | 19.73315 | 53.62425 | 40812 ft | 495 kts | 128° |
| 2026-04-27 22:38 | 19.69084 | 53.68181 | 40812 ft | 494 kts | 128° |
| 2026-04-27 22:39 | 19.64849 | 53.73938 | 40813 ft | 493 kts | 128° |
| 2026-04-27 22:39 | 19.61178 | 53.80017 | 40813 ft | 493 kts | 115° |
| 2026-04-27 22:40 | 19.58833 | 53.86852 | 40815 ft | 493 kts | 107° |
| 2026-04-27 22:40 | 19.56815 | 53.93813 | 40813 ft | 494 kts | 107° |
| 2026-04-27 22:41 | 19.54767 | 54.00773 | 40813 ft | 494 kts | 107° |
| 2026-04-27 22:41 | 19.52749 | 54.07689 | 40809 ft | 494 kts | 106° |
| 2026-04-27 22:42 | 19.50764 | 54.14668 | 40793 ft | 493 kts | 106° |
| 2026-04-27 22:42 | 19.48794 | 54.21627 | 40792 ft | 492 kts | 106° |
| 2026-04-27 22:43 | 19.46829 | 54.28568 | 40791 ft | 491 kts | 106° |
| 2026-04-27 22:43 | 19.44874 | 54.35476 | 40792 ft | 492 kts | 106° |
| 2026-04-27 22:44 | 19.42908 | 54.42419 | 40791 ft | 491 kts | 106° |
| 2026-04-27 22:44 | 19.40938 | 54.49361 | 40789 ft | 491 kts | 106° |
| 2026-04-27 22:45 | 19.38983 | 54.56242 | 40787 ft | 490 kts | 106° |
| 2026-04-27 22:45 | 19.37016 | 54.63156 | 40787 ft | 489 kts | 106° |
| 2026-04-27 22:46 | 19.35056 | 54.70031 | 40787 ft | 489 kts | 106° |
| 2026-04-27 22:46 | 19.33086 | 54.76928 | 40786 ft | 489 kts | 106° |
| 2026-04-27 22:47 | 19.31110 | 54.83841 | 40786 ft | 489 kts | 106° |
| 2026-04-27 22:47 | 19.29149 | 54.90685 | 40785 ft | 488 kts | 106° |
| 2026-04-27 22:48 | 19.27172 | 54.97572 | 40785 ft | 488 kts | 106° |
| 2026-04-27 22:48 | 19.25199 | 55.04438 | 40784 ft | 487 kts | 106° |
| 2026-04-27 22:49 | 19.23233 | 55.11269 | 40784 ft | 488 kts | 106° |
| 2026-04-27 22:49 | 19.21253 | 55.18137 | 40782 ft | 487 kts | 106° |
| 2026-04-27 22:50 | 19.19284 | 55.24953 | 40782 ft | 486 kts | 106° |
| 2026-04-27 22:50 | 19.17305 | 55.31797 | 40781 ft | 486 kts | 106° |
| 2026-04-27 22:51 | 19.15322 | 55.38642 | 40781 ft | 486 kts | 106° |
| 2026-04-27 22:51 | 19.13668 | 55.44343 | 40780 ft | 486 kts | 106° |
| 2026-04-27 22:52 | 19.11359 | 55.52292 | 40779 ft | 486 kts | 106° |
| 2026-04-27 22:52 | 19.09691 | 55.58025 | 40778 ft | 486 kts | 106° |
| 2026-04-27 22:53 | 19.07705 | 55.64839 | 40781 ft | 486 kts | 106° |
| 2026-04-27 22:53 | 19.05725 | 55.71624 | 40781 ft | 486 kts | 106° |
| 2026-04-27 22:54 | 19.03705 | 55.78447 | 40780 ft | 486 kts | 106° |
| 2026-04-27 22:54 | 19.01686 | 55.85268 | 40779 ft | 485 kts | 106° |
| 2026-04-27 22:55 | 18.99686 | 55.92033 | 40777 ft | 485 kts | 106° |
| 2026-04-27 22:55 | 18.97673 | 55.98845 | 40776 ft | 485 kts | 106° |
| 2026-04-27 22:56 | 18.95647 | 56.05646 | 40775 ft | 484 kts | 106° |
| 2026-04-27 22:56 | 18.93643 | 56.12387 | 40773 ft | 482 kts | 106° |
| 2026-04-27 22:57 | 18.91635 | 56.19146 | 40773 ft | 481 kts | 106° |
| 2026-04-27 22:57 | 18.89628 | 56.25899 | 40773 ft | 482 kts | 106° |
| 2026-04-27 22:58 | 18.87629 | 56.32625 | 40771 ft | 483 kts | 106° |
| 2026-04-27 22:58 | 18.85614 | 56.39396 | 40770 ft | 483 kts | 106° |
| 2026-04-27 22:59 | 18.83596 | 56.46168 | 40769 ft | 482 kts | 106° |
| 2026-04-27 22:59 | 18.81595 | 56.52873 | 40768 ft | 481 kts | 106° |
| 2026-04-27 23:00 | 18.78570 | 56.62990 | 40767 ft | 481 kts | 106° |
| 2026-04-27 23:00 | 18.76560 | 56.69699 | 40766 ft | 481 kts | 106° |
| 2026-04-27 23:01 | 18.74533 | 56.76452 | 40766 ft | 481 kts | 106° |
| 2026-04-27 23:01 | 18.72524 | 56.83138 | 40765 ft | 481 kts | 106° |
| 2026-04-27 23:02 | 18.70495 | 56.89878 | 40764 ft | 480 kts | 106° |
| 2026-04-27 23:02 | 18.68480 | 56.96560 | 40764 ft | 480 kts | 106° |
| 2026-04-27 23:03 | 18.66453 | 57.03273 | 40764 ft | 480 kts | 106° |
| 2026-04-27 23:03 | 18.64424 | 57.09982 | 40763 ft | 479 kts | 106° |
| 2026-04-27 23:04 | 18.62408 | 57.16642 | 40763 ft | 479 kts | 106° |
| 2026-04-27 23:04 | 18.60377 | 57.23338 | 40763 ft | 478 kts | 106° |
| 2026-04-27 23:05 | 18.58353 | 57.30004 | 40762 ft | 478 kts | 106° |
| 2026-04-27 23:05 | 18.56334 | 57.36642 | 40761 ft | 477 kts | 106° |
| 2026-04-27 23:06 | 18.54303 | 57.43311 | 40759 ft | 477 kts | 106° |
| 2026-04-27 23:06 | 18.52288 | 57.49918 | 40759 ft | 476 kts | 106° |
| 2026-04-27 23:07 | 18.50254 | 57.56575 | 40759 ft | 475 kts | 106° |
| 2026-04-27 23:07 | 18.48237 | 57.63173 | 40759 ft | 475 kts | 106° |
| 2026-04-27 23:08 | 18.46206 | 57.69801 | 40759 ft | 474 kts | 106° |
| 2026-04-27 23:08 | 18.44189 | 57.76379 | 40758 ft | 474 kts | 106° |
| 2026-04-27 23:09 | 18.42157 | 57.82995 | 40759 ft | 473 kts | 106° |
| 2026-04-27 23:09 | 18.40131 | 57.89585 | 40759 ft | 473 kts | 106° |
| 2026-04-27 23:10 | 18.38103 | 57.96169 | 40759 ft | 473 kts | 106° |
| 2026-04-27 23:10 | 18.36043 | 58.02700 | 40759 ft | 473 kts | 107° |
| 2026-04-27 23:11 | 18.33977 | 58.09288 | 40758 ft | 472 kts | 107° |
| 2026-04-27 23:11 | 18.31935 | 58.15824 | 40759 ft | 472 kts | 106° |
| 2026-04-27 23:12 | 18.29888 | 58.22385 | 40759 ft | 472 kts | 106° |
| 2026-04-27 23:12 | 18.27852 | 58.28911 | 40759 ft | 472 kts | 106° |
| 2026-04-27 23:13 | 18.25804 | 58.35471 | 40759 ft | 472 kts | 107° |
| 2026-04-27 23:13 | 18.23743 | 58.42066 | 40759 ft | 472 kts | 107° |
| 2026-04-27 23:14 | 18.21701 | 58.48595 | 40759 ft | 473 kts | 107° |
| 2026-04-27 23:14 | 18.19639 | 58.55178 | 40759 ft | 473 kts | 107° |
| 2026-04-27 23:15 | 18.17588 | 58.61717 | 40759 ft | 473 kts | 107° |
| 2026-04-27 23:15 | 18.15521 | 58.68297 | 40759 ft | 473 kts | 107° |
| 2026-04-27 23:16 | 18.13454 | 58.74870 | 40759 ft | 474 kts | 107° |
| 2026-04-27 23:16 | 18.11381 | 58.81449 | 40759 ft | 474 kts | 107° |
| 2026-04-27 23:17 | 18.09312 | 58.88008 | 40759 ft | 474 kts | 107° |
| 2026-04-27 23:17 | 18.07228 | 58.94603 | 40759 ft | 474 kts | 107° |
| 2026-04-27 23:18 | 18.05160 | 59.01141 | 40759 ft | 474 kts | 107° |
| 2026-04-27 23:18 | 18.03074 | 59.07727 | 40759 ft | 473 kts | 107° |
| 2026-04-27 23:19 | 18.01004 | 59.14253 | 40759 ft | 473 kts | 107° |
| 2026-04-27 23:19 | 17.98915 | 59.20831 | 40760 ft | 473 kts | 107° |
| 2026-04-27 23:20 | 17.96843 | 59.27346 | 40758 ft | 471 kts | 107° |
| 2026-04-27 23:20 | 17.94770 | 59.33855 | 40758 ft | 469 kts | 107° |
| 2026-04-27 23:21 | 17.92697 | 59.40356 | 40759 ft | 469 kts | 107° |
| 2026-04-27 23:21 | 17.90633 | 59.46821 | 40759 ft | 470 kts | 107° |
| 2026-04-27 23:22 | 17.88547 | 59.53345 | 40759 ft | 471 kts | 107° |
| 2026-04-27 23:22 | 17.86459 | 59.59870 | 40759 ft | 471 kts | 107° |
| 2026-04-27 23:23 | 17.84381 | 59.66352 | 40758 ft | 470 kts | 107° |
| 2026-04-27 23:23 | 17.82290 | 59.72868 | 40758 ft | 470 kts | 107° |
| 2026-04-27 23:24 | 17.80211 | 59.79336 | 40758 ft | 470 kts | 107° |
| 2026-04-27 23:24 | 17.78117 | 59.85845 | 40758 ft | 470 kts | 107° |
| 2026-04-27 23:25 | 17.76019 | 59.92357 | 40758 ft | 470 kts | 107° |
| 2026-04-27 23:25 | 17.73934 | 59.98820 | 40758 ft | 470 kts | 107° |
| 2026-04-27 23:26 | 17.70948 | 60.04958 | 40760 ft | 473 kts | 119° |
| 2026-04-27 23:26 | 17.67547 | 60.10842 | 40758 ft | 474 kts | 120° |
| 2026-04-27 23:27 | 17.64097 | 60.16747 | 40758 ft | 474 kts | 120° |
| 2026-04-27 23:27 | 17.60657 | 60.22616 | 40757 ft | 474 kts | 120° |
| 2026-04-27 23:28 | 17.57199 | 60.28503 | 40757 ft | 474 kts | 120° |
| 2026-04-27 23:28 | 17.53740 | 60.34389 | 40757 ft | 473 kts | 120° |
| 2026-04-27 23:29 | 17.50300 | 60.40236 | 40757 ft | 474 kts | 120° |
| 2026-04-27 23:29 | 17.46847 | 60.46099 | 40757 ft | 474 kts | 120° |
| 2026-04-27 23:30 | 17.43375 | 60.51990 | 40757 ft | 474 kts | 120° |
| 2026-04-27 23:30 | 17.39905 | 60.57870 | 40757 ft | 474 kts | 120° |
| 2026-04-27 23:31 | 17.36450 | 60.63717 | 40757 ft | 474 kts | 120° |
| 2026-04-27 23:31 | 17.32980 | 60.69586 | 40757 ft | 474 kts | 120° |
| 2026-04-27 23:32 | 17.29519 | 60.75432 | 40757 ft | 474 kts | 120° |
| 2026-04-27 23:32 | 17.26035 | 60.81311 | 40757 ft | 474 kts | 120° |
| 2026-04-27 23:33 | 17.22569 | 60.87153 | 40757 ft | 475 kts | 120° |
| 2026-04-27 23:33 | 17.19075 | 60.93039 | 40756 ft | 474 kts | 120° |
| 2026-04-27 23:34 | 17.15613 | 60.98865 | 40756 ft | 474 kts | 121° |
| 2026-04-27 23:34 | 17.12113 | 61.04748 | 40756 ft | 475 kts | 121° |
| 2026-04-27 23:35 | 17.08646 | 61.10572 | 40756 ft | 475 kts | 121° |
| 2026-04-27 23:35 | 17.05146 | 61.16446 | 40756 ft | 475 kts | 121° |
| 2026-04-27 23:36 | 17.01647 | 61.22315 | 40756 ft | 475 kts | 121° |
| 2026-04-27 23:36 | 16.98165 | 61.28148 | 40756 ft | 475 kts | 121° |
| 2026-04-27 23:37 | 16.94681 | 61.33981 | 40756 ft | 475 kts | 121° |
| 2026-04-27 23:37 | 16.91181 | 61.39834 | 40756 ft | 475 kts | 121° |
| 2026-04-27 23:38 | 16.87669 | 61.45702 | 40756 ft | 475 kts | 121° |
| 2026-04-27 23:38 | 16.84157 | 61.51566 | 40756 ft | 476 kts | 121° |
| 2026-04-27 23:39 | 16.80645 | 61.57424 | 40756 ft | 476 kts | 121° |
| 2026-04-27 23:39 | 16.77153 | 61.63246 | 40756 ft | 476 kts | 121° |
| 2026-04-27 23:40 | 16.73639 | 61.69096 | 40752 ft | 476 kts | 121° |
| 2026-04-27 23:40 | 16.70116 | 61.74958 | 40750 ft | 476 kts | 121° |
| 2026-04-27 23:41 | 16.66600 | 61.80770 | 40750 ft | 476 kts | 122° |
| 2026-04-27 23:41 | 16.63065 | 61.86626 | 40750 ft | 476 kts | 122° |
| 2026-04-27 23:42 | 16.59563 | 61.92445 | 40750 ft | 476 kts | 121° |
| 2026-04-27 23:42 | 16.56042 | 61.98300 | 40750 ft | 476 kts | 122° |
| 2026-04-27 23:43 | 16.52520 | 62.04158 | 40749 ft | 477 kts | 122° |
| 2026-04-27 23:43 | 16.48989 | 62.10028 | 40750 ft | 478 kts | 122° |
| 2026-04-27 23:44 | 16.45471 | 62.15874 | 40750 ft | 479 kts | 122° |
| 2026-04-27 23:44 | 16.41923 | 62.21766 | 40749 ft | 478 kts | 122° |
| 2026-04-27 23:45 | 16.38401 | 62.27612 | 40746 ft | 478 kts | 122° |
| 2026-04-27 23:45 | 16.34863 | 62.33479 | 40735 ft | 477 kts | 122° |
| 2026-04-27 23:46 | 16.31345 | 62.39307 | 40735 ft | 477 kts | 122° |
| 2026-04-27 23:46 | 16.27804 | 62.45171 | 40745 ft | 477 kts | 122° |
| 2026-04-27 23:47 | 16.24283 | 62.50993 | 40753 ft | 478 kts | 122° |
| 2026-04-27 23:47 | 16.20738 | 62.56852 | 40753 ft | 478 kts | 122° |
| 2026-04-27 23:48 | 16.17189 | 62.62711 | 40753 ft | 478 kts | 122° |
| 2026-04-27 23:48 | 16.13655 | 62.68541 | 40753 ft | 479 kts | 122° |
| 2026-04-27 23:49 | 16.10088 | 62.74420 | 40753 ft | 479 kts | 122° |
| 2026-04-27 23:49 | 16.06543 | 62.80258 | 40752 ft | 479 kts | 122° |
| 2026-04-27 23:50 | 16.02978 | 62.86124 | 40752 ft | 479 kts | 122° |
| 2026-04-27 23:50 | 15.99404 | 62.92000 | 40753 ft | 480 kts | 122° |
| 2026-04-27 23:51 | 15.95853 | 62.97843 | 40753 ft | 481 kts | 123° |
| 2026-04-27 23:51 | 15.92266 | 63.03729 | 40752 ft | 482 kts | 123° |
| 2026-04-27 23:52 | 15.88678 | 63.09608 | 40752 ft | 482 kts | 123° |
| 2026-04-27 23:52 | 15.85096 | 63.15478 | 40752 ft | 482 kts | 123° |
| 2026-04-27 23:53 | 15.82109 | 63.20368 | 40752 ft | 482 kts | 123° |
| 2026-04-27 23:53 | 15.77925 | 63.27213 | 40752 ft | 482 kts | 124° |
| 2026-04-27 23:54 | 15.74934 | 63.32104 | 40757 ft | 482 kts | 124° |
| 2026-04-27 23:54 | 15.71325 | 63.37999 | 40757 ft | 483 kts | 124° |
| 2026-04-27 23:55 | 15.67711 | 63.43899 | 40758 ft | 483 kts | 124° |
| 2026-04-27 23:55 | 15.64119 | 63.49757 | 40757 ft | 484 kts | 124° |
| 2026-04-27 23:56 | 15.60495 | 63.55663 | 40759 ft | 484 kts | 124° |
| 2026-04-27 23:56 | 15.56896 | 63.61524 | 40761 ft | 483 kts | 124° |
| 2026-04-27 23:57 | 15.53271 | 63.67422 | 40761 ft | 483 kts | 124° |
| 2026-04-27 23:57 | 15.49674 | 63.73270 | 40761 ft | 483 kts | 124° |
| 2026-04-27 23:58 | 15.46052 | 63.79156 | 40762 ft | 483 kts | 124° |
| 2026-04-27 23:58 | 15.42431 | 63.85034 | 40761 ft | 483 kts | 124° |
| 2026-04-27 23:59 | 15.38838 | 63.90861 | 40762 ft | 483 kts | 124° |
| 2026-04-27 23:59 | 15.35206 | 63.96748 | 40762 ft | 483 kts | 124° |
| 2026-04-28 00:00 | 15.31601 | 64.02589 | 40761 ft | 483 kts | 124° |
| 2026-04-28 00:00 | 15.27971 | 64.08463 | 40762 ft | 484 kts | 124° |
| 2026-04-28 00:01 | 15.24361 | 64.14300 | 40762 ft | 485 kts | 125° |
| 2026-04-28 00:01 | 15.20717 | 64.20186 | 40762 ft | 485 kts | 125° |
| 2026-04-28 00:02 | 15.17077 | 64.26065 | 40762 ft | 484 kts | 125° |
| 2026-04-28 00:02 | 15.13462 | 64.31895 | 40762 ft | 483 kts | 125° |
| 2026-04-28 00:03 | 15.09823 | 64.37763 | 40763 ft | 483 kts | 125° |
| 2026-04-28 00:03 | 15.06186 | 64.43621 | 40763 ft | 484 kts | 125° |
| 2026-04-28 00:04 | 15.00750 | 64.52370 | 40763 ft | 484 kts | 125° |
| 2026-04-28 00:05 | 14.97104 | 64.58233 | 40763 ft | 483 kts | 125° |
| 2026-04-28 00:05 | 14.93462 | 64.64082 | 40763 ft | 483 kts | 125° |
| 2026-04-28 00:06 | 14.89840 | 64.69898 | 40764 ft | 483 kts | 126° |
| 2026-04-28 00:06 | 14.86196 | 64.75744 | 40764 ft | 483 kts | 126° |
| 2026-04-28 00:07 | 14.82552 | 64.81585 | 40764 ft | 483 kts | 126° |
| 2026-04-28 00:07 | 14.78933 | 64.87382 | 40764 ft | 483 kts | 126° |
| 2026-04-28 00:08 | 14.75278 | 64.93232 | 40764 ft | 483 kts | 126° |
| 2026-04-28 00:08 | 14.71620 | 64.99083 | 40764 ft | 483 kts | 126° |
| 2026-04-28 00:09 | 14.67997 | 65.04873 | 40761 ft | 484 kts | 126° |
| 2026-04-28 00:09 | 14.64318 | 65.10748 | 40762 ft | 487 kts | 126° |
| 2026-04-28 00:10 | 14.60628 | 65.16636 | 40762 ft | 489 kts | 126° |
| 2026-04-28 00:10 | 14.56923 | 65.22514 | 40760 ft | 489 kts | 126° |
| 2026-04-28 00:11 | 14.53250 | 65.28384 | 40760 ft | 488 kts | 126° |
| 2026-04-28 00:11 | 14.49577 | 65.34285 | 40765 ft | 487 kts | 126° |
| 2026-04-28 00:12 | 14.45919 | 65.40169 | 40779 ft | 487 kts | 126° |
| 2026-04-28 00:12 | 14.42282 | 65.46021 | 40780 ft | 487 kts | 126° |
| 2026-04-28 00:13 | 14.38613 | 65.51923 | 40780 ft | 488 kts | 126° |
| 2026-04-28 00:13 | 14.34968 | 65.57787 | 40780 ft | 488 kts | 126° |
| 2026-04-28 00:14 | 14.31291 | 65.63697 | 40780 ft | 488 kts | 126° |
| 2026-04-28 00:14 | 14.27642 | 65.69560 | 40780 ft | 487 kts | 126° |
| 2026-04-28 00:15 | 14.23976 | 65.75447 | 40781 ft | 487 kts | 126° |
| 2026-04-28 00:15 | 14.20309 | 65.81328 | 40781 ft | 487 kts | 125° |
| 2026-04-28 00:16 | 14.16649 | 65.87197 | 40781 ft | 486 kts | 126° |
| 2026-04-28 00:16 | 14.13007 | 65.93032 | 40781 ft | 487 kts | 126° |
| 2026-04-28 00:17 | 14.09333 | 65.98912 | 40781 ft | 487 kts | 126° |
| 2026-04-28 00:17 | 14.05679 | 66.04756 | 40781 ft | 487 kts | 126° |
| 2026-04-28 00:18 | 14.01999 | 66.10638 | 40781 ft | 487 kts | 126° |
| 2026-04-28 00:18 | 13.98325 | 66.16506 | 40781 ft | 487 kts | 126° |
| 2026-04-28 00:19 | 13.94670 | 66.22338 | 40782 ft | 487 kts | 126° |
| 2026-04-28 00:19 | 13.90990 | 66.28207 | 40782 ft | 487 kts | 126° |
| 2026-04-28 00:20 | 13.87333 | 66.34034 | 40782 ft | 486 kts | 126° |
| 2026-04-28 00:20 | 13.83657 | 66.39888 | 40782 ft | 486 kts | 126° |
| 2026-04-28 00:21 | 13.79977 | 66.45745 | 40782 ft | 486 kts | 126° |
| 2026-04-28 00:21 | 13.76325 | 66.51551 | 40782 ft | 486 kts | 126° |
| 2026-04-28 00:22 | 13.72651 | 66.57390 | 40782 ft | 485 kts | 126° |
| 2026-04-28 00:22 | 13.68995 | 66.63195 | 40782 ft | 485 kts | 126° |
| 2026-04-28 00:23 | 13.65325 | 66.69020 | 40782 ft | 485 kts | 126° |
| 2026-04-28 00:23 | 13.61671 | 66.74814 | 40783 ft | 485 kts | 126° |
| 2026-04-28 00:24 | 13.57995 | 66.80639 | 40782 ft | 484 kts | 126° |
| 2026-04-28 00:24 | 13.54350 | 66.86412 | 40783 ft | 484 kts | 126° |
| 2026-04-28 00:25 | 13.50678 | 66.92222 | 40783 ft | 484 kts | 126° |
| 2026-04-28 00:25 | 13.47003 | 66.98033 | 40783 ft | 484 kts | 126° |
| 2026-04-28 00:26 | 13.43357 | 67.03795 | 40783 ft | 483 kts | 126° |
| 2026-04-28 00:26 | 13.39689 | 67.09589 | 40783 ft | 483 kts | 126° |
| 2026-04-28 00:27 | 13.36036 | 67.15354 | 40783 ft | 484 kts | 126° |
| 2026-04-28 00:27 | 13.32359 | 67.21153 | 40783 ft | 484 kts | 126° |
| 2026-04-28 00:28 | 13.28684 | 67.26945 | 40784 ft | 484 kts | 126° |
| 2026-04-28 00:28 | 13.25010 | 67.32733 | 40783 ft | 483 kts | 126° |
| 2026-04-28 00:29 | 13.21357 | 67.38483 | 40783 ft | 483 kts | 126° |
| 2026-04-28 00:29 | 13.17684 | 67.44259 | 40784 ft | 483 kts | 126° |
| 2026-04-28 00:30 | 13.14003 | 67.50045 | 40784 ft | 483 kts | 126° |
| 2026-04-28 00:30 | 13.10342 | 67.55797 | 40779 ft | 483 kts | 126° |
| 2026-04-28 00:31 | 13.06680 | 67.61546 | 40772 ft | 483 kts | 126° |
| 2026-04-28 00:31 | 13.03002 | 67.67317 | 40773 ft | 482 kts | 126° |
| 2026-04-28 00:32 | 12.99324 | 67.73084 | 40773 ft | 482 kts | 126° |
| 2026-04-28 00:32 | 12.95671 | 67.78806 | 40773 ft | 482 kts | 126° |
| 2026-04-28 00:33 | 12.91992 | 67.84568 | 40773 ft | 482 kts | 126° |
| 2026-04-28 00:33 | 12.88336 | 67.90288 | 40774 ft | 481 kts | 126° |
| 2026-04-28 00:34 | 12.84666 | 67.96027 | 40774 ft | 481 kts | 126° |
| 2026-04-28 00:34 | 12.80994 | 68.01766 | 40774 ft | 481 kts | 126° |
| 2026-04-28 00:35 | 12.77330 | 68.07505 | 40775 ft | 481 kts | 126° |
| 2026-04-28 00:35 | 12.73668 | 68.13249 | 40775 ft | 481 kts | 126° |
| 2026-04-28 00:36 | 12.70024 | 68.18970 | 40775 ft | 481 kts | 126° |
| 2026-04-28 00:36 | 12.66358 | 68.24732 | 40776 ft | 481 kts | 126° |
| 2026-04-28 00:37 | 12.62727 | 68.30437 | 40776 ft | 480 kts | 126° |
| 2026-04-28 00:37 | 12.59085 | 68.36163 | 40776 ft | 480 kts | 126° |
| 2026-04-28 00:38 | 12.55446 | 68.41884 | 40777 ft | 480 kts | 126° |
| 2026-04-28 00:38 | 12.51786 | 68.47635 | 40777 ft | 481 kts | 126° |
| 2026-04-28 00:39 | 12.48157 | 68.53336 | 40777 ft | 481 kts | 126° |
| 2026-04-28 00:39 | 12.44508 | 68.59068 | 40777 ft | 480 kts | 126° |
| 2026-04-28 00:40 | 12.40859 | 68.64795 | 40778 ft | 480 kts | 126° |
| 2026-04-28 00:40 | 12.37209 | 68.70523 | 40778 ft | 480 kts | 126° |
| 2026-04-28 00:41 | 12.33578 | 68.76217 | 40778 ft | 480 kts | 126° |
| 2026-04-28 00:41 | 12.29946 | 68.81911 | 40779 ft | 480 kts | 126° |
| 2026-04-28 00:42 | 12.26292 | 68.87633 | 40779 ft | 480 kts | 126° |
| 2026-04-28 00:42 | 12.22635 | 68.93359 | 40779 ft | 480 kts | 126° |
| 2026-04-28 00:43 | 12.18981 | 68.99077 | 40779 ft | 480 kts | 126° |
| 2026-04-28 00:43 | 12.15339 | 69.04760 | 40780 ft | 480 kts | 126° |
| 2026-04-28 00:44 | 12.11674 | 69.10483 | 40779 ft | 480 kts | 126° |
| 2026-04-28 00:44 | 12.08047 | 69.16154 | 40780 ft | 479 kts | 126° |
| 2026-04-28 00:45 | 12.04396 | 69.21862 | 40780 ft | 479 kts | 126° |
| 2026-04-28 00:45 | 12.00744 | 69.27574 | 40780 ft | 479 kts | 126° |
| 2026-04-28 00:46 | 11.97119 | 69.33243 | 40781 ft | 478 kts | 126° |
| 2026-04-28 00:46 | 11.93486 | 69.38925 | 40786 ft | 476 kts | 126° |
| 2026-04-28 00:47 | 11.89865 | 69.44586 | 40787 ft | 476 kts | 126° |
| 2026-04-28 00:47 | 11.86266 | 69.50212 | 40788 ft | 476 kts | 126° |
| 2026-04-28 00:48 | 11.82633 | 69.55888 | 40788 ft | 478 kts | 126° |
| 2026-04-28 00:48 | 11.78989 | 69.61579 | 40787 ft | 478 kts | 126° |
| 2026-04-28 00:49 | 11.75370 | 69.67228 | 40787 ft | 478 kts | 126° |
| 2026-04-28 00:49 | 11.71718 | 69.72925 | 40788 ft | 477 kts | 126° |
| 2026-04-28 00:50 | 11.68106 | 69.78557 | 40789 ft | 477 kts | 126° |
| 2026-04-28 00:50 | 11.64466 | 69.84229 | 40789 ft | 477 kts | 126° |
| 2026-04-28 00:51 | 11.60814 | 69.89887 | 40789 ft | 477 kts | 127° |
| 2026-04-28 00:51 | 11.57157 | 69.95503 | 40789 ft | 477 kts | 127° |
| 2026-04-28 00:52 | 11.53488 | 70.01146 | 40788 ft | 477 kts | 127° |
| 2026-04-28 00:52 | 11.49834 | 70.06771 | 40789 ft | 477 kts | 127° |
| 2026-04-28 00:53 | 11.46154 | 70.12438 | 40789 ft | 478 kts | 127° |
| 2026-04-28 00:53 | 11.42486 | 70.18085 | 40788 ft | 478 kts | 127° |
| 2026-04-28 00:54 | 11.38820 | 70.23728 | 40799 ft | 477 kts | 127° |
| 2026-04-28 00:54 | 11.35175 | 70.29337 | 40812 ft | 477 kts | 127° |
| 2026-04-28 00:55 | 11.31499 | 70.34991 | 40813 ft | 477 kts | 127° |
| 2026-04-28 00:55 | 11.27839 | 70.40618 | 40813 ft | 478 kts | 127° |
| 2026-04-28 00:56 | 11.24783 | 70.45314 | 40813 ft | 477 kts | 127° |
| 2026-04-28 00:56 | 11.20513 | 70.51874 | 40813 ft | 477 kts | 127° |
| 2026-04-28 00:57 | 11.17460 | 70.56561 | 40813 ft | 477 kts | 127° |
| 2026-04-28 00:57 | 11.13787 | 70.62196 | 40814 ft | 477 kts | 127° |
| 2026-04-28 00:58 | 11.10110 | 70.67834 | 40814 ft | 477 kts | 127° |
| 2026-04-28 00:58 | 11.06455 | 70.73435 | 40814 ft | 478 kts | 127° |
| 2026-04-28 00:59 | 11.02768 | 70.79081 | 40814 ft | 477 kts | 127° |
| 2026-04-28 00:59 | 10.99103 | 70.84692 | 40814 ft | 477 kts | 127° |
| 2026-04-28 01:00 | 10.95417 | 70.90330 | 40814 ft | 477 kts | 127° |
| 2026-04-28 01:00 | 10.91753 | 70.95932 | 40814 ft | 477 kts | 127° |
| 2026-04-28 01:01 | 10.88067 | 71.01565 | 40814 ft | 477 kts | 127° |
| 2026-04-28 01:01 | 10.84403 | 71.07160 | 40814 ft | 477 kts | 127° |
| 2026-04-28 01:02 | 10.80715 | 71.12790 | 40814 ft | 477 kts | 127° |
| 2026-04-28 01:02 | 10.77023 | 71.18423 | 40814 ft | 477 kts | 127° |
| 2026-04-28 01:03 | 10.73362 | 71.24005 | 40815 ft | 477 kts | 127° |
| 2026-04-28 01:03 | 10.69664 | 71.29641 | 40814 ft | 477 kts | 127° |
| 2026-04-28 01:04 | 10.65970 | 71.35268 | 40815 ft | 477 kts | 127° |
| 2026-04-28 01:04 | 10.62312 | 71.40836 | 40815 ft | 477 kts | 127° |
| 2026-04-28 01:05 | 10.58618 | 71.46458 | 40815 ft | 477 kts | 127° |
| 2026-04-28 01:05 | 10.54951 | 71.52032 | 40815 ft | 477 kts | 127° |
| 2026-04-28 01:06 | 10.51258 | 71.57647 | 40815 ft | 477 kts | 127° |
| 2026-04-28 01:06 | 10.47570 | 71.63251 | 40815 ft | 476 kts | 127° |
| 2026-04-28 01:07 | 10.43906 | 71.68813 | 40815 ft | 476 kts | 127° |
| 2026-04-28 01:07 | 10.40224 | 71.74402 | 40815 ft | 476 kts | 127° |
| 2026-04-28 01:08 | 10.36533 | 71.80001 | 40815 ft | 476 kts | 127° |
| 2026-04-28 01:08 | 10.32866 | 71.85561 | 40815 ft | 476 kts | 127° |
| 2026-04-28 01:09 | 10.29172 | 71.91159 | 40815 ft | 476 kts | 127° |
| 2026-04-28 01:09 | 10.25508 | 71.96708 | 40815 ft | 475 kts | 127° |
| 2026-04-28 01:10 | 10.21823 | 72.02287 | 40815 ft | 475 kts | 127° |
| 2026-04-28 01:10 | 10.18133 | 72.07871 | 40815 ft | 475 kts | 127° |
| 2026-04-28 01:11 | 10.14443 | 72.13452 | 40815 ft | 475 kts | 127° |
| 2026-04-28 01:11 | 10.10775 | 72.18996 | 40815 ft | 476 kts | 127° |
| 2026-04-28 01:12 | 10.07082 | 72.24576 | 40815 ft | 475 kts | 127° |
| 2026-04-28 01:12 | 10.03408 | 72.30124 | 40815 ft | 475 kts | 127° |
| 2026-04-28 01:13 | 9.99713 | 72.35703 | 40815 ft | 476 kts | 127° |
| 2026-04-28 01:13 | 9.94966 | 72.44513 | 40819 ft | 481 kts | 112° |
| 2026-04-28 01:14 | 9.92729 | 72.50918 | 40816 ft | 482 kts | 111° |
| 2026-04-28 01:14 | 9.90618 | 72.57335 | 40815 ft | 482 kts | 111° |
| 2026-04-28 01:15 | 9.88510 | 72.63803 | 40815 ft | 481 kts | 111° |
| 2026-04-28 01:15 | 9.86411 | 72.70262 | 40815 ft | 481 kts | 111° |
| 2026-04-28 01:16 | 9.84331 | 72.76667 | 40816 ft | 481 kts | 110° |
| 2026-04-28 01:16 | 9.82234 | 72.83122 | 40815 ft | 481 kts | 110° |
| 2026-04-28 01:17 | 9.80132 | 72.89595 | 40815 ft | 481 kts | 110° |
| 2026-04-28 01:17 | 9.78049 | 72.96002 | 40815 ft | 481 kts | 110° |
| 2026-04-28 01:18 | 9.75954 | 73.02449 | 40815 ft | 481 kts | 110° |
| 2026-04-28 01:18 | 9.73858 | 73.08891 | 40815 ft | 481 kts | 110° |
| 2026-04-28 01:19 | 9.71762 | 73.15332 | 40815 ft | 481 kts | 110° |
| 2026-04-28 01:19 | 9.69681 | 73.21719 | 40815 ft | 481 kts | 110° |
| 2026-04-28 01:20 | 9.67582 | 73.28158 | 40816 ft | 481 kts | 110° |
| 2026-04-28 01:20 | 9.65478 | 73.34606 | 40815 ft | 481 kts | 110° |
| 2026-04-28 01:21 | 9.63377 | 73.41043 | 40815 ft | 481 kts | 110° |
| 2026-04-28 01:21 | 9.61289 | 73.47434 | 40815 ft | 481 kts | 110° |
| 2026-04-28 01:22 | 9.59185 | 73.53868 | 40815 ft | 480 kts | 110° |
| 2026-04-28 01:22 | 9.57084 | 73.60288 | 40815 ft | 480 kts | 110° |
| 2026-04-28 01:23 | 9.54979 | 73.66716 | 40816 ft | 480 kts | 110° |
| 2026-04-28 01:23 | 9.52871 | 73.73149 | 40816 ft | 481 kts | 110° |
| 2026-04-28 01:24 | 9.50776 | 73.79537 | 40815 ft | 481 kts | 110° |
| 2026-04-28 01:24 | 9.48668 | 73.85962 | 40815 ft | 480 kts | 110° |
| 2026-04-28 01:25 | 9.46560 | 73.92382 | 40815 ft | 480 kts | 110° |
| 2026-04-28 01:25 | 9.44449 | 73.98806 | 40815 ft | 480 kts | 110° |
| 2026-04-28 01:26 | 9.42348 | 74.05190 | 40815 ft | 480 kts | 110° |
| 2026-04-28 01:26 | 9.40230 | 74.11608 | 40815 ft | 480 kts | 110° |
| 2026-04-28 01:27 | 9.38127 | 74.18027 | 40816 ft | 480 kts | 110° |
| 2026-04-28 01:27 | 9.36027 | 74.24449 | 40816 ft | 480 kts | 110° |
| 2026-04-28 01:28 | 9.33929 | 74.30876 | 40815 ft | 480 kts | 110° |
| 2026-04-28 01:28 | 9.31842 | 74.37268 | 40815 ft | 480 kts | 110° |
| 2026-04-28 01:29 | 9.29747 | 74.43687 | 40815 ft | 480 kts | 110° |
| 2026-04-28 01:29 | 9.27650 | 74.50111 | 40816 ft | 480 kts | 110° |
| 2026-04-28 01:30 | 9.25563 | 74.56498 | 40815 ft | 480 kts | 110° |
| 2026-04-28 01:30 | 9.23465 | 74.62919 | 40815 ft | 480 kts | 110° |
| 2026-04-28 01:31 | 9.21367 | 74.69335 | 40815 ft | 480 kts | 110° |
| 2026-04-28 01:31 | 9.19268 | 74.75752 | 40815 ft | 480 kts | 110° |
| 2026-04-28 01:32 | 9.17163 | 74.82178 | 40815 ft | 481 kts | 110° |
| 2026-04-28 01:32 | 9.15074 | 74.88554 | 40815 ft | 480 kts | 110° |
| 2026-04-28 01:33 | 9.12970 | 74.94972 | 40815 ft | 480 kts | 110° |
| 2026-04-28 01:33 | 9.10863 | 75.01391 | 40815 ft | 480 kts | 110° |
| 2026-04-28 01:34 | 9.08767 | 75.07773 | 40816 ft | 480 kts | 110° |
| 2026-04-28 01:34 | 9.06657 | 75.14195 | 40815 ft | 480 kts | 110° |
| 2026-04-28 01:35 | 9.04548 | 75.20608 | 40815 ft | 480 kts | 110° |
| 2026-04-28 01:35 | 9.02443 | 75.27008 | 40815 ft | 480 kts | 110° |
| 2026-04-28 01:36 | 9.00334 | 75.33411 | 40816 ft | 480 kts | 110° |
| 2026-04-28 01:36 | 8.98225 | 75.39812 | 40816 ft | 480 kts | 110° |
| 2026-04-28 01:37 | 8.96126 | 75.46176 | 40816 ft | 480 kts | 109° |
| 2026-04-28 01:37 | 8.94013 | 75.52582 | 40815 ft | 479 kts | 109° |
| 2026-04-28 01:38 | 8.91903 | 75.58974 | 40815 ft | 479 kts | 109° |
| 2026-04-28 01:38 | 8.89798 | 75.65346 | 40816 ft | 479 kts | 110° |
| 2026-04-28 01:39 | 8.87686 | 75.71734 | 40818 ft | 479 kts | 110° |
| 2026-04-28 01:39 | 8.85570 | 75.78129 | 40818 ft | 479 kts | 110° |
| 2026-04-28 01:40 | 8.83456 | 75.84518 | 40818 ft | 479 kts | 110° |
| 2026-04-28 01:40 | 8.81349 | 75.90878 | 40817 ft | 479 kts | 110° |
| 2026-04-28 01:41 | 8.79229 | 75.97274 | 40817 ft | 479 kts | 109° |
| 2026-04-28 01:41 | 8.77112 | 76.03657 | 40815 ft | 478 kts | 109° |
| 2026-04-28 01:42 | 8.74995 | 76.10037 | 40816 ft | 478 kts | 109° |
| 2026-04-28 01:42 | 8.72889 | 76.16379 | 40816 ft | 478 kts | 109° |
| 2026-04-28 01:43 | 8.70770 | 76.22758 | 40816 ft | 478 kts | 110° |
| 2026-04-28 01:43 | 8.68652 | 76.29128 | 40815 ft | 478 kts | 110° |
| 2026-04-28 01:44 | 8.66531 | 76.35503 | 40815 ft | 478 kts | 110° |
| 2026-04-28 01:44 | 8.64424 | 76.41833 | 40816 ft | 478 kts | 110° |
| 2026-04-28 01:45 | 8.62303 | 76.48200 | 40818 ft | 478 kts | 110° |
| 2026-04-28 01:45 | 8.60181 | 76.54566 | 40818 ft | 478 kts | 110° |
| 2026-04-28 01:46 | 8.58056 | 76.60940 | 40817 ft | 478 kts | 110° |
| 2026-04-28 01:46 | 8.55931 | 76.67307 | 40817 ft | 478 kts | 110° |
| 2026-04-28 01:47 | 8.53805 | 76.73673 | 40817 ft | 478 kts | 110° |
| 2026-04-28 01:47 | 8.51691 | 76.80001 | 40816 ft | 478 kts | 110° |
| 2026-04-28 01:48 | 8.49560 | 76.86378 | 40816 ft | 478 kts | 110° |
| 2026-04-28 01:48 | 8.47474 | 76.92761 | 40811 ft | 479 kts | 105° |
| 2026-04-28 01:49 | 8.46523 | 76.99428 | 40817 ft | 480 kts | 98° |
| 2026-04-28 01:49 | 8.45751 | 77.06102 | 40816 ft | 481 kts | 97° |
| 2026-04-28 01:50 | 8.44985 | 77.12819 | 40816 ft | 481 kts | 97° |
| 2026-04-28 01:50 | 8.44227 | 77.19543 | 40817 ft | 481 kts | 97° |
| 2026-04-28 01:51 | 8.43478 | 77.26214 | 40819 ft | 481 kts | 97° |
| 2026-04-28 01:51 | 8.42728 | 77.32939 | 40820 ft | 480 kts | 97° |
| 2026-04-28 01:52 | 8.41983 | 77.39646 | 40823 ft | 480 kts | 97° |
| 2026-04-28 01:52 | 8.41245 | 77.46302 | 40826 ft | 480 kts | 97° |
| 2026-04-28 01:53 | 8.40501 | 77.53015 | 40829 ft | 481 kts | 97° |
| 2026-04-28 01:53 | 8.39757 | 77.59736 | 40832 ft | 481 kts | 97° |
| 2026-04-28 01:54 | 8.39013 | 77.66450 | 40834 ft | 481 kts | 97° |
| 2026-04-28 01:54 | 8.38270 | 77.73161 | 40836 ft | 480 kts | 97° |
| 2026-04-28 01:55 | 8.37527 | 77.79866 | 40838 ft | 480 kts | 97° |
| 2026-04-28 01:55 | 8.36788 | 77.86530 | 40840 ft | 480 kts | 97° |
| 2026-04-28 01:56 | 8.36041 | 77.93249 | 40841 ft | 480 kts | 97° |
| 2026-04-28 01:56 | 8.35297 | 77.99944 | 40841 ft | 480 kts | 97° |
| 2026-04-28 01:57 | 8.34555 | 78.06613 | 40844 ft | 480 kts | 97° |
| 2026-04-28 01:57 | 8.33807 | 78.13320 | 40843 ft | 480 kts | 97° |
| 2026-04-28 01:58 | 8.33185 | 78.18890 | 40843 ft | 480 kts | 98° |
| 2026-04-28 01:58 | 8.32315 | 78.26675 | 40843 ft | 480 kts | 98° |
| 2026-04-28 01:59 | 8.31566 | 78.33366 | 40842 ft | 480 kts | 98° |
| 2026-04-28 01:59 | 8.30937 | 78.38976 | 40842 ft | 480 kts | 97° |
| 2026-04-28 02:00 | 8.30186 | 78.45665 | 40841 ft | 479 kts | 97° |
| 2026-04-28 02:00 | 8.29438 | 78.52316 | 40841 ft | 479 kts | 97° |
| 2026-04-28 02:01 | 8.27914 | 78.58815 | 40839 ft | 475 kts | 116° |
| 2026-04-28 02:01 | 8.26279 | 78.61699 | 40839 ft | 472 kts | 128° |
| 2026-04-28 02:01 | 8.24178 | 78.64249 | 40844 ft | 471 kts | 133° |
| 2026-04-28 02:02 | 8.19867 | 78.69205 | 40839 ft | 472 kts | 133° |
| 2026-04-28 02:02 | 8.15515 | 78.74181 | 40838 ft | 472 kts | 133° |
| 2026-04-28 02:03 | 8.11158 | 78.79144 | 40837 ft | 472 kts | 133° |
| 2026-04-28 02:03 | 8.06830 | 78.84058 | 40837 ft | 471 kts | 133° |
| 2026-04-28 02:04 | 8.02466 | 78.88998 | 40837 ft | 471 kts | 133° |
| 2026-04-28 02:04 | 7.98101 | 78.93930 | 40837 ft | 471 kts | 133° |
| 2026-04-28 02:05 | 7.93759 | 78.98827 | 40836 ft | 469 kts | 133° |
| 2026-04-28 02:05 | 7.89400 | 79.03739 | 40836 ft | 467 kts | 133° |
| 2026-04-28 02:06 | 7.85090 | 79.08590 | 40837 ft | 466 kts | 133° |
| 2026-04-28 02:06 | 7.80754 | 79.13468 | 40838 ft | 466 kts | 133° |
| 2026-04-28 02:07 | 7.76414 | 79.18345 | 40838 ft | 466 kts | 133° |
| 2026-04-28 02:07 | 7.72101 | 79.23188 | 40839 ft | 467 kts | 132° |
| 2026-04-28 02:08 | 7.67783 | 79.28085 | 40839 ft | 467 kts | 132° |
| 2026-04-28 02:08 | 7.63467 | 79.33000 | 40840 ft | 467 kts | 132° |
| 2026-04-28 02:09 | 7.59186 | 79.37874 | 40840 ft | 466 kts | 132° |
| 2026-04-28 02:09 | 7.54880 | 79.42776 | 40841 ft | 466 kts | 132° |
| 2026-04-28 02:10 | 7.50574 | 79.47679 | 40842 ft | 466 kts | 132° |
| 2026-04-28 02:10 | 7.46298 | 79.52546 | 40843 ft | 466 kts | 132° |
| 2026-04-28 02:11 | 7.41996 | 79.57440 | 40843 ft | 466 kts | 132° |
| 2026-04-28 02:11 | 7.37723 | 79.62301 | 40844 ft | 466 kts | 132° |
| 2026-04-28 02:12 | 7.33420 | 79.67195 | 40844 ft | 466 kts | 132° |
| 2026-04-28 02:12 | 7.29115 | 79.72090 | 40844 ft | 466 kts | 132° |
| 2026-04-28 02:13 | 7.24844 | 79.76945 | 40845 ft | 465 kts | 132° |
| 2026-04-28 02:13 | 7.20540 | 79.81836 | 40845 ft | 465 kts | 132° |
| 2026-04-28 02:14 | 7.16255 | 79.86735 | 40843 ft | 465 kts | 128° |
| 2026-04-28 02:14 | 7.13023 | 79.92326 | 40847 ft | 466 kts | 117° |
| 2026-04-28 02:15 | 7.08724 | 80.01093 | 40845 ft | 466 kts | 116° |
| 2026-04-28 02:16 | 7.05858 | 80.06960 | 40844 ft | 465 kts | 116° |
| 2026-04-28 02:16 | 7.03028 | 80.12771 | 40845 ft | 463 kts | 116° |
| 2026-04-28 02:17 | 7.00189 | 80.18611 | 40845 ft | 463 kts | 116° |
| 2026-04-28 02:17 | 6.97361 | 80.24435 | 40845 ft | 463 kts | 116° |
| 2026-04-28 02:18 | 6.94546 | 80.30239 | 40845 ft | 463 kts | 116° |
| 2026-04-28 02:18 | 6.91716 | 80.36074 | 40845 ft | 463 kts | 116° |
| 2026-04-28 02:19 | 6.88909 | 80.41866 | 40845 ft | 462 kts | 116° |
| 2026-04-28 02:19 | 6.86091 | 80.47682 | 40845 ft | 462 kts | 116° |
| 2026-04-28 02:20 | 6.83271 | 80.53500 | 40845 ft | 462 kts | 116° |
| 2026-04-28 02:20 | 6.80447 | 80.59329 | 40845 ft | 463 kts | 116° |
| 2026-04-28 02:21 | 6.77625 | 80.65151 | 40845 ft | 463 kts | 116° |
| 2026-04-28 02:21 | 6.74817 | 80.70943 | 40845 ft | 463 kts | 116° |
| 2026-04-28 02:22 | 6.71930 | 80.76736 | 40845 ft | 462 kts | 117° |
| 2026-04-28 02:22 | 6.69043 | 80.82485 | 40845 ft | 462 kts | 117° |
| 2026-04-28 02:23 | 6.66139 | 80.88269 | 40845 ft | 462 kts | 117° |
| 2026-04-28 02:23 | 6.63240 | 80.94045 | 40845 ft | 462 kts | 117° |
| 2026-04-28 02:24 | 6.60340 | 80.99824 | 40845 ft | 463 kts | 117° |
| 2026-04-28 02:24 | 6.57453 | 81.05576 | 40845 ft | 462 kts | 117° |
| 2026-04-28 02:25 | 6.54562 | 81.11337 | 40845 ft | 461 kts | 117° |
| 2026-04-28 02:25 | 6.51667 | 81.17105 | 40846 ft | 461 kts | 116° |
| 2026-04-28 02:26 | 6.48797 | 81.22822 | 40845 ft | 460 kts | 116° |
| 2026-04-28 02:26 | 6.45908 | 81.28576 | 40845 ft | 460 kts | 116° |
| 2026-04-28 02:27 | 6.43026 | 81.34315 | 40845 ft | 460 kts | 116° |
| 2026-04-28 02:27 | 6.40134 | 81.40071 | 40845 ft | 461 kts | 116° |
| 2026-04-28 02:28 | 6.37259 | 81.45792 | 40845 ft | 460 kts | 116° |
| 2026-04-28 02:28 | 6.34374 | 81.51532 | 40845 ft | 459 kts | 116° |
| 2026-04-28 02:29 | 6.31578 | 81.57297 | 40845 ft | 458 kts | 115° |
| 2026-04-28 02:29 | 6.28837 | 81.63085 | 40845 ft | 458 kts | 115° |
| 2026-04-28 02:30 | 6.26114 | 81.68836 | 40845 ft | 458 kts | 115° |
| 2026-04-28 02:30 | 6.23373 | 81.74627 | 40845 ft | 459 kts | 115° |
| 2026-04-28 02:31 | 6.20627 | 81.80429 | 40845 ft | 458 kts | 115° |
| 2026-04-28 02:31 | 6.17903 | 81.86183 | 40845 ft | 458 kts | 115° |
| 2026-04-28 02:32 | 6.15170 | 81.91954 | 40845 ft | 457 kts | 115° |
| 2026-04-28 02:32 | 6.12431 | 81.97736 | 40845 ft | 457 kts | 115° |
| 2026-04-28 02:33 | 6.09712 | 82.03516 | 40845 ft | 458 kts | 115° |
| 2026-04-28 02:33 | 6.06991 | 82.09300 | 40845 ft | 458 kts | 115° |
| 2026-04-28 02:34 | 6.04282 | 82.15057 | 40845 ft | 458 kts | 115° |
| 2026-04-28 02:34 | 6.01562 | 82.20837 | 40845 ft | 458 kts | 115° |
| 2026-04-28 02:35 | 5.98833 | 82.26633 | 40845 ft | 458 kts | 115° |
| 2026-04-28 02:35 | 5.96111 | 82.32415 | 40845 ft | 458 kts | 115° |
| 2026-04-28 02:36 | 5.93402 | 82.38167 | 40845 ft | 458 kts | 115° |
| 2026-04-28 02:36 | 5.90673 | 82.43960 | 40846 ft | 458 kts | 115° |
| 2026-04-28 02:37 | 5.87948 | 82.49741 | 40846 ft | 458 kts | 115° |
| 2026-04-28 02:37 | 5.85240 | 82.55487 | 40846 ft | 458 kts | 115° |
| 2026-04-28 02:38 | 5.82502 | 82.61293 | 40846 ft | 459 kts | 115° |
| 2026-04-28 02:38 | 5.79771 | 82.67083 | 40846 ft | 458 kts | 115° |
| 2026-04-28 02:39 | 5.77061 | 82.72828 | 40856 ft | 457 kts | 115° |
| 2026-04-28 02:39 | 5.74335 | 82.78604 | 40874 ft | 457 kts | 115° |
| 2026-04-28 02:40 | 5.71619 | 82.84357 | 40875 ft | 458 kts | 115° |
| 2026-04-28 02:40 | 5.68888 | 82.90140 | 40875 ft | 458 kts | 115° |
| 2026-04-28 02:41 | 5.66153 | 82.95928 | 40875 ft | 458 kts | 115° |
| 2026-04-28 02:41 | 5.63439 | 83.01670 | 40874 ft | 458 kts | 115° |
| 2026-04-28 02:42 | 5.60706 | 83.07450 | 40874 ft | 458 kts | 115° |
| 2026-04-28 02:42 | 5.57970 | 83.13236 | 40874 ft | 458 kts | 115° |
| 2026-04-28 02:43 | 5.55249 | 83.18988 | 40874 ft | 458 kts | 115° |
| 2026-04-28 02:43 | 5.52514 | 83.24766 | 40874 ft | 458 kts | 115° |
| 2026-04-28 02:44 | 5.49776 | 83.30550 | 40874 ft | 459 kts | 115° |
| 2026-04-28 02:44 | 5.47032 | 83.36346 | 40874 ft | 459 kts | 115° |
| 2026-04-28 02:45 | 5.44287 | 83.42140 | 40874 ft | 459 kts | 115° |
| 2026-04-28 02:45 | 5.41558 | 83.47899 | 40874 ft | 459 kts | 115° |
| 2026-04-28 02:46 | 5.38825 | 83.53665 | 40874 ft | 459 kts | 115° |
| 2026-04-28 02:46 | 5.36082 | 83.59451 | 40874 ft | 459 kts | 115° |
| 2026-04-28 02:47 | 5.33338 | 83.65237 | 40874 ft | 459 kts | 115° |
| 2026-04-28 02:47 | 5.30591 | 83.71027 | 40874 ft | 459 kts | 115° |
| 2026-04-28 02:48 | 5.27864 | 83.76774 | 40874 ft | 459 kts | 115° |
| 2026-04-28 02:48 | 5.25111 | 83.82573 | 40874 ft | 459 kts | 115° |
| 2026-04-28 02:49 | 5.22365 | 83.88357 | 40874 ft | 459 kts | 115° |
| 2026-04-28 02:49 | 5.19635 | 83.94105 | 40874 ft | 459 kts | 115° |
| 2026-04-28 02:50 | 5.16883 | 83.99886 | 40874 ft | 459 kts | 115° |
| 2026-04-28 02:50 | 5.14051 | 84.05636 | 40875 ft | 460 kts | 116° |
| 2026-04-28 02:51 | 5.11231 | 84.11358 | 40875 ft | 461 kts | 116° |
| 2026-04-28 02:51 | 5.08381 | 84.17146 | 40875 ft | 462 kts | 115° |
| 2026-04-28 02:52 | 5.05538 | 84.22924 | 40874 ft | 462 kts | 115° |
| 2026-04-28 02:52 | 5.02713 | 84.28666 | 40874 ft | 461 kts | 115° |
| 2026-04-28 02:53 | 4.99877 | 84.34429 | 40875 ft | 461 kts | 115° |
| 2026-04-28 02:53 | 4.97037 | 84.40204 | 40875 ft | 462 kts | 115° |
| 2026-04-28 02:54 | 4.94184 | 84.46002 | 40875 ft | 462 kts | 115° |
| 2026-04-28 02:54 | 4.91352 | 84.51757 | 40875 ft | 463 kts | 115° |
| 2026-04-28 02:55 | 4.88500 | 84.57554 | 40875 ft | 462 kts | 115° |
| 2026-04-28 02:55 | 4.85670 | 84.63304 | 40875 ft | 462 kts | 115° |
| 2026-04-28 02:56 | 4.82820 | 84.69093 | 40875 ft | 462 kts | 115° |
| 2026-04-28 02:56 | 4.79972 | 84.74876 | 40875 ft | 462 kts | 115° |
| 2026-04-28 02:57 | 4.77143 | 84.80621 | 40875 ft | 462 kts | 115° |
| 2026-04-28 02:57 | 4.74292 | 84.86408 | 40875 ft | 462 kts | 115° |
| 2026-04-28 02:58 | 4.71438 | 84.92200 | 40875 ft | 463 kts | 115° |
| 2026-04-28 02:58 | 4.68603 | 84.97953 | 40875 ft | 463 kts | 116° |
| 2026-04-28 02:59 | 4.65746 | 85.03748 | 40875 ft | 464 kts | 116° |
| 2026-04-28 02:59 | 4.62884 | 85.09551 | 40875 ft | 464 kts | 116° |
| 2026-04-28 03:00 | 4.60041 | 85.15314 | 40875 ft | 464 kts | 115° |
| 2026-04-28 03:00 | 4.57179 | 85.21114 | 40875 ft | 463 kts | 115° |
| 2026-04-28 03:01 | 4.54317 | 85.26912 | 40875 ft | 463 kts | 115° |
| 2026-04-28 03:01 | 4.51943 | 85.31721 | 40876 ft | 464 kts | 115° |
| 2026-04-28 03:02 | 4.49088 | 85.37502 | 40876 ft | 464 kts | 115° |
| 2026-04-28 03:02 | 4.46227 | 85.43296 | 40876 ft | 464 kts | 115° |
| 2026-04-28 03:03 | 4.43360 | 85.49097 | 40876 ft | 464 kts | 115° |
| 2026-04-28 03:03 | 4.40487 | 85.54911 | 40876 ft | 464 kts | 115° |
| 2026-04-28 03:04 | 4.37637 | 85.60676 | 40876 ft | 464 kts | 115° |
| 2026-04-28 03:04 | 4.34767 | 85.66481 | 40876 ft | 464 kts | 115° |
| 2026-04-28 03:05 | 4.31890 | 85.72299 | 40876 ft | 465 kts | 115° |
| 2026-04-28 03:05 | 4.29035 | 85.78071 | 40876 ft | 465 kts | 115° |
| 2026-04-28 03:06 | 4.26157 | 85.83887 | 40877 ft | 465 kts | 115° |
| 2026-04-28 03:06 | 4.23299 | 85.89662 | 40877 ft | 465 kts | 115° |
| 2026-04-28 03:07 | 4.20420 | 85.95478 | 40877 ft | 465 kts | 115° |
| 2026-04-28 03:07 | 4.17543 | 86.01289 | 40877 ft | 465 kts | 115° |
| 2026-04-28 03:08 | 4.14667 | 86.07096 | 40878 ft | 465 kts | 115° |
| 2026-04-28 03:08 | 4.11809 | 86.12866 | 40878 ft | 465 kts | 115° |
| 2026-04-28 03:09 | 4.08934 | 86.18671 | 40878 ft | 464 kts | 116° |
| 2026-04-28 03:09 | 4.06063 | 86.24465 | 40878 ft | 463 kts | 116° |
| 2026-04-28 03:10 | 4.03193 | 86.30252 | 40878 ft | 463 kts | 116° |
| 2026-04-28 03:10 | 4.00324 | 86.36039 | 40878 ft | 463 kts | 116° |
| 2026-04-28 03:11 | 3.97477 | 86.41779 | 40878 ft | 463 kts | 116° |
| 2026-04-28 03:11 | 3.94606 | 86.47567 | 40878 ft | 463 kts | 116° |
| 2026-04-28 03:12 | 3.91750 | 86.53324 | 40879 ft | 463 kts | 116° |
| 2026-04-28 03:12 | 3.88883 | 86.59103 | 40879 ft | 463 kts | 116° |
| 2026-04-28 03:13 | 3.86017 | 86.64878 | 40879 ft | 463 kts | 116° |
| 2026-04-28 03:13 | 3.83149 | 86.70655 | 40879 ft | 463 kts | 116° |
| 2026-04-28 03:14 | 3.80300 | 86.76393 | 40879 ft | 463 kts | 116° |
| 2026-04-28 03:14 | 3.77430 | 86.82172 | 40879 ft | 463 kts | 116° |
| 2026-04-28 03:15 | 3.74561 | 86.87947 | 40879 ft | 463 kts | 116° |
| 2026-04-28 03:15 | 3.71701 | 86.93705 | 40879 ft | 463 kts | 116° |
| 2026-04-28 03:16 | 3.68830 | 86.99483 | 40882 ft | 462 kts | 116° |
| 2026-04-28 03:16 | 3.65977 | 87.05222 | 40883 ft | 465 kts | 116° |
| 2026-04-28 03:17 | 3.63076 | 87.11058 | 40888 ft | 470 kts | 116° |
| 2026-04-28 03:17 | 3.58669 | 87.19921 | 40924 ft | 478 kts | 116° |
| 2026-04-28 03:18 | 3.55692 | 87.25907 | 40925 ft | 482 kts | 116° |
| 2026-04-28 03:18 | 3.52720 | 87.31881 | 40924 ft | 482 kts | 116° |
| 2026-04-28 03:19 | 3.49737 | 87.37877 | 40925 ft | 480 kts | 116° |
| 2026-04-28 03:19 | 3.46767 | 87.43845 | 40926 ft | 478 kts | 116° |
| 2026-04-28 03:20 | 3.43800 | 87.49804 | 40927 ft | 478 kts | 116° |
| 2026-04-28 03:20 | 3.40826 | 87.55779 | 40928 ft | 479 kts | 116° |
| 2026-04-28 03:21 | 3.37868 | 87.61719 | 40929 ft | 480 kts | 116° |
| 2026-04-28 03:21 | 3.34891 | 87.67696 | 40929 ft | 480 kts | 116° |
| 2026-04-28 03:22 | 3.31915 | 87.73670 | 40930 ft | 479 kts | 116° |
| 2026-04-28 03:22 | 3.28822 | 87.79583 | 40931 ft | 479 kts | 117° |
| 2026-04-28 03:23 | 3.25711 | 87.85469 | 40932 ft | 478 kts | 117° |
| 2026-04-28 03:23 | 3.22603 | 87.91354 | 40933 ft | 478 kts | 117° |
| 2026-04-28 03:24 | 3.19513 | 87.97207 | 40934 ft | 479 kts | 117° |
| 2026-04-28 03:24 | 3.16404 | 88.03101 | 40934 ft | 479 kts | 117° |
| 2026-04-28 03:25 | 3.13293 | 88.09001 | 40935 ft | 479 kts | 117° |
| 2026-04-28 03:25 | 3.10186 | 88.14896 | 40936 ft | 479 kts | 117° |
| 2026-04-28 03:26 | 3.07101 | 88.20749 | 40937 ft | 479 kts | 117° |
| 2026-04-28 03:26 | 3.03985 | 88.26660 | 40937 ft | 479 kts | 117° |
| 2026-04-28 03:27 | 3.00877 | 88.32556 | 40938 ft | 479 kts | 117° |
| 2026-04-28 03:27 | 2.97776 | 88.38440 | 40939 ft | 478 kts | 117° |
| 2026-04-28 03:28 | 2.94689 | 88.44296 | 40940 ft | 478 kts | 117° |
| 2026-04-28 03:28 | 2.91669 | 88.50226 | 40941 ft | 478 kts | 115° |
| 2026-04-28 03:29 | 2.88738 | 88.56164 | 40941 ft | 478 kts | 115° |
| 2026-04-28 03:29 | 2.85797 | 88.62126 | 40942 ft | 477 kts | 115° |
| 2026-04-28 03:30 | 2.82857 | 88.68084 | 40943 ft | 478 kts | 115° |
| 2026-04-28 03:30 | 2.79912 | 88.74053 | 40943 ft | 478 kts | 115° |
| 2026-04-28 03:31 | 2.76986 | 88.79982 | 40944 ft | 478 kts | 115° |
| 2026-04-28 03:31 | 2.74035 | 88.85961 | 40945 ft | 478 kts | 115° |
| 2026-04-28 03:32 | 2.71089 | 88.91931 | 40946 ft | 478 kts | 115° |
| 2026-04-28 03:32 | 2.68160 | 88.97864 | 40946 ft | 478 kts | 115° |
| 2026-04-28 03:33 | 2.65208 | 89.03843 | 40947 ft | 479 kts | 115° |
| 2026-04-28 03:33 | 2.62256 | 89.09821 | 40948 ft | 479 kts | 115° |
| 2026-04-28 03:34 | 2.59301 | 89.15804 | 40948 ft | 479 kts | 115° |
| 2026-04-28 03:34 | 2.56347 | 89.21782 | 40949 ft | 479 kts | 115° |
| 2026-04-28 03:35 | 2.53415 | 89.27719 | 40950 ft | 479 kts | 115° |
| 2026-04-28 03:35 | 2.50459 | 89.33701 | 40951 ft | 479 kts | 115° |
| 2026-04-28 03:36 | 2.47502 | 89.39684 | 40951 ft | 479 kts | 115° |
| 2026-04-28 03:36 | 2.44566 | 89.45626 | 40952 ft | 479 kts | 115° |
| 2026-04-28 03:37 | 2.41608 | 89.51611 | 40953 ft | 480 kts | 115° |
| 2026-04-28 03:37 | 2.38667 | 89.57561 | 40953 ft | 480 kts | 115° |
| 2026-04-28 03:38 | 2.35705 | 89.63553 | 40954 ft | 480 kts | 115° |
| 2026-04-28 03:38 | 2.32741 | 89.69544 | 40954 ft | 480 kts | 115° |
| 2026-04-28 03:39 | 2.29774 | 89.75545 | 40943 ft | 480 kts | 115° |
| 2026-04-28 03:39 | 2.26824 | 89.81485 | 40901 ft | 481 kts | 115° |
| 2026-04-28 03:40 | 2.23849 | 89.87482 | 40874 ft | 480 kts | 115° |
| 2026-04-28 03:40 | 2.20884 | 89.93462 | 40872 ft | 480 kts | 115° |
| 2026-04-28 03:41 | 2.17907 | 89.99464 | 40873 ft | 480 kts | 115° |
| 2026-04-28 03:41 | 2.14956 | 90.05416 | 40873 ft | 481 kts | 115° |
| 2026-04-28 03:42 | 2.11981 | 90.11417 | 40872 ft | 481 kts | 115° |
| 2026-04-28 03:42 | 2.09004 | 90.17420 | 40872 ft | 481 kts | 115° |
| 2026-04-28 03:43 | 2.06052 | 90.23372 | 40872 ft | 481 kts | 115° |
| 2026-04-28 03:43 | 2.04569 | 90.26364 | 40872 ft | 481 kts | 115° |